Latest Weather Observations for Batchelor

IDD60901

Issued at 9:21 pm CST Wednesday 26 April 2017 (issued every 10 minutes, with the page automatically refreshed every 10 minutes)

About weather observations | Map of Darwin area stations | Latest observations for Darwin area | Other Formats
Station Details ID: 014272 Name: BATCHELOR AIRPORT Lat: -13.05 Lon: 131.03 Height: 104.0 m
Data from the previous 72 hours. | See also: Recent months at Batchelor
Date/Time
CST
Temp
°C
App
Temp
°C
Dew
Point
°C
Rel
Hum
%
Delta-T
°C
Wind Press
QNH
hPa
Press
MSL
hPa
Rain since
9am
mm
Dir  Spd
km/h
Gust
km/h
Spd
kts
Gust
kts
26/09:00pm 25.9 30.6 22.6 82 2.2 NE 2 2 1 1 1010.7 1010.0 0.0
26/08:30pm 26.4 30.3 21.8 76 3.1 NE 4 4 2 2 1010.7 1010.0 0.0
26/08:00pm 27.2 31.0 21.7 72 3.7 ENE 4 6 2 3 1010.7 1010.0 0.0
26/07:30pm 26.8 31.4 22.4 77 3.0 ESE 2 4 1 2 1010.3 1009.6 0.0
26/07:00pm 27.5 32.0 22.2 73 3.6 ESE 2 4 1 2 1010.1 1009.4 0.0
26/06:30pm 28.0 32.3 22.0 70 4.1 ESE 2 2 1 1 1009.6 1008.9 0.0
26/06:00pm 29.0 32.7 21.5 64 5.0 ESE 4 6 2 3 1009.2 1008.5 0.0
26/05:30pm 29.5 33.1 22.0 64 5.1 ESE 6 7 3 4 1009.1 1008.4 0.0
26/05:00pm 29.8 33.0 21.2 60 5.8 ESE 6 7 3 4 1008.7 1008.0 0.0
26/04:30pm 30.1 32.9 20.9 57 6.2 ESE 7 13 4 7 1008.4 1007.7 0.0
26/04:00pm 30.2 31.9 20.2 55 6.6 E 11 15 6 8 1008.3 1007.6 0.0
26/03:30pm 30.5 32.3 20.4 54 6.7 E 11 17 6 9 1008.4 1007.7 0.0
26/03:00pm 30.5 30.8 19.5 51 7.2 E 17 24 9 13 1008.5 1007.8 0.0
26/02:30pm 30.8 30.9 19.2 50 7.6 E 17 26 9 14 1008.8 1008.1 0.0
26/02:00pm 30.6 30.2 19.3 51 7.4 E 20 32 11 17 1009.2 1008.5 0.0
26/01:30pm 30.5 31.0 20.1 53 6.9 E 17 24 9 13 1009.6 1008.9 0.0
26/01:00pm 30.3 30.3 20.2 54 6.7 E 20 30 11 16 1009.9 1009.2 0.0
26/12:30pm 30.2 31.0 21.3 59 6.0 ESE 19 28 10 15 1010.4 1009.7 0.0
26/12:00pm 29.8 30.9 21.2 60 5.8 ESE 17 22 9 12 1011.1 1010.4 0.0
26/11:30am 28.9 30.2 20.9 62 5.3 E 15 20 8 11 1011.8 1011.2 0.0
26/11:00am 28.4 30.0 21.4 66 4.7 E 15 20 8 11 1012.0 1011.4 0.0
26/10:30am 27.7 29.4 21.0 67 4.5 ESE 13 17 7 9 1012.3 1011.7 0.0
26/10:00am 27.4 29.1 21.0 68 4.3 ESE 13 19 7 10 1012.2 1011.6 0.0
26/09:30am 27.3 29.7 21.6 71 3.8 ESE 11 17 6 9 1012.0 1011.4 0.0
26/09:00am 25.5 28.0 21.0 76 3.0 SE 9 15 5 8 1011.5 1010.9 0.0
26/08:30am 24.5 28.7 21.0 81 2.3 CALM 0 0 0 0 1011.3 1010.7 0.0
26/08:00am 23.8 26.9 20.3 81 2.3 E 4 6 2 3 1011.3 1010.7 0.0
26/07:30am 22.0 25.7 19.9 88 1.4 CALM 0 0 0 0 1010.8 1010.1 0.0
26/07:00am 21.9 25.2 19.1 84 1.8 CALM 0 2 0 1 1010.5 1009.8 0.0
26/06:30am 23.0 25.2 19.2 79 2.4 ENE 6 7 3 4 1010.4 1009.7 0.0
26/06:00am 21.8 24.3 19.0 84 1.8 E 4 6 2 3 1010.3 1009.6 0.0
26/05:30am 21.8 24.8 19.2 85 1.7 NE 2 6 1 3 1010.3 1009.6 0.0
26/05:00am 22.0 25.1 19.4 85 1.7 NE 2 4 1 2 1010.1 1009.4 0.0
26/04:30am 21.9 25.0 20.2 90 1.1 NE 4 6 2 3 1009.9 1009.2 0.0
26/04:00am 21.9 25.6 20.0 89 1.2 CALM 0 0 0 0 1010.1 1009.4 0.0
26/03:30am 22.0 25.5 20.3 90 1.1 NE 2 2 1 1 1010.0 1009.3 0.0
26/03:00am 22.0 25.5 20.3 90 1.1 NE 2 4 1 2 1010.1 1009.4 0.0
26/02:30am 21.9 25.4 20.4 91 1.0 NE 2 4 1 2 1010.2 1009.5 0.0
26/02:00am 21.9 25.7 20.2 90 1.1 CALM 0 0 0 0 1010.4 1009.7 0.0
26/01:30am 21.6 25.2 19.7 89 1.2 CALM 0 0 0 0 1010.7 1010.0 0.0
26/01:00am 21.9 25.5 19.8 88 1.3 CALM 0 0 0 0 1011.3 1010.7 0.0
26/12:30am 22.2 25.9 19.9 87 1.5 CALM 0 0 0 0 1011.6 1011.0 0.0
26/12:00am 22.4 26.0 19.8 85 1.7 CALM 0 0 0 0 1011.9 1011.3 0.0
 
Date/Time
CST
Temp
°C
App
Temp
°C
Dew
Point
°C
Rel
Hum
%
Delta-T
°C
Wind Press
QNH
hPa
Press
MSL
hPa
Rain since
9am
mm
Dir  Spd
km/h
Gust
km/h
Spd
kts
Gust
kts
25/11:30pm 22.6 26.3 19.9 85 1.7 CALM 0 0 0 0 1012.1 1011.5 0.0
25/11:00pm 23.0 26.7 20.0 83 1.9 CALM 0 0 0 0 1012.2 1011.6 0.0
25/10:30pm 23.3 26.3 20.1 82 2.1 NE 4 4 2 2 1012.3 1011.7 0.0
25/10:00pm 24.1 26.7 19.2 74 3.1 NE 4 6 2 3 1012.2 1011.6 0.0
25/09:30pm 25.6 28.2 19.3 68 4.1 NNE 4 7 2 4 1011.9 1011.3 0.0
25/09:00pm 24.4 28.7 21.1 82 2.2 CALM 0 0 0 0 1011.6 1011.0 0.0
25/08:30pm 24.5 28.4 20.4 78 2.7 CALM 0 0 0 0 1011.2 1010.5 0.0
25/08:00pm 25.0 29.2 20.9 78 2.7 CALM 0 2 0 1 1010.7 1010.0 0.0
25/07:30pm 25.5 29.0 20.3 73 3.4 ENE 2 6 1 3 1010.5 1009.8 0.0
25/07:00pm 26.4 29.4 19.3 65 4.6 NE 2 4 1 2 1010.2 1009.5 0.0
25/06:30pm 27.8 31.8 20.6 65 4.8 CALM 0 2 0 1 1009.9 1009.2 0.0
25/06:00pm 30.1 32.1 17.9 48 7.8 ESE 4 4 2 2 1009.7 1009.0 0.0
25/05:30pm 31.5 32.3 17.4 43 9.0 E 9 13 5 7 1009.4 1008.7 0.0
25/05:00pm 32.8 32.6 16.6 38 10.3 ESE 13 17 7 9 1009.0 1008.3 0.0
25/04:30pm 33.1 33.5 17.3 39 10.2 E 11 17 6 9 1008.7 1008.0 0.0
25/04:00pm 32.4 31.8 16.7 39 10.0 ESE 15 19 8 10 1008.7 1008.0 0.0
25/03:30pm 32.5 32.6 17.5 40 9.6 ESE 13 17 7 9 1008.7 1008.0 0.0
25/03:00pm 33.0 33.4 19.1 43 9.2 ESE 15 20 8 11 1009.0 1008.3 0.0
25/02:30pm 32.8 34.1 19.3 45 8.9 E 11 20 6 11 1009.3 1008.6 0.0
25/02:00pm 32.2 33.5 20.1 48 8.0 E 13 19 7 10 1009.8 1009.1 0.0
25/01:30pm 31.3 33.4 20.9 54 7.0 E 11 15 6 8 1010.4 1009.7 0.0
25/01:00pm 31.1 32.8 20.1 52 7.3 ESE 11 19 6 10 1010.6 1009.9 0.0
25/12:30pm 30.6 33.0 20.8 56 6.6 E 9 13 5 7 1011.1 1010.4 0.0
25/12:00pm 30.1 32.4 22.0 62 5.5 ESE 13 19 7 10 1011.7 1011.1 0.0
25/11:30am 30.2 32.5 21.3 59 6.0 ENE 11 17 6 9 1012.3 1011.7 0.0
25/11:00am 29.7 32.5 21.6 61 5.5 NE 9 15 5 8 1012.8 1012.1 0.0
25/10:30am 29.2 32.4 21.7 64 5.1 NE 7 13 4 7 1013.0 1012.3 0.0
25/10:00am 28.8 31.9 22.1 67 4.5 ENE 9 15 5 8 1013.2 1012.5 0.0
25/09:30am 28.5 32.7 23.4 74 3.5 E 7 9 4 5 1012.8 1012.1 0.0
25/09:00am 27.5 31.8 23.3 78 2.9 ESE 6 7 3 4 1012.3 1011.7 0.0
25/08:30am 26.3 31.5 23.6 85 1.9 SE 2 6 1 3 1012.0 1011.4 0.0
25/08:00am 24.9 30.5 23.5 92 1.0 CALM 0 0 0 0 1011.7 1011.1 0.0
25/07:30am 22.4 27.1 21.9 97 0.3 CALM 0 0 0 0 1011.4 1010.8 0.0
25/07:00am 21.5 25.4 20.3 93 0.8 CALM 0 0 0 0 1011.3 1010.7 0.0
25/06:30am 21.8 26.1 21.1 96 0.5 CALM 0 0 0 0 1011.0 1010.3 0.0
25/06:00am 21.6 25.5 20.4 93 0.8 CALM 0 0 0 0 1010.7 1010.0 0.0
25/05:30am 21.9 26.1 20.9 94 0.7 CALM 0 0 0 0 1010.5 1009.8 0.0
25/05:00am 22.1 26.3 20.9 93 0.8 CALM 0 0 0 0 1010.4 1009.7 0.0
25/04:30am 22.7 27.4 21.9 95 0.5 CALM 0 0 0 0 1010.3 1009.6 0.0
25/04:00am 22.6 26.9 21.2 92 0.9 CALM 0 0 0 0 1010.2 1009.5 0.0
25/03:30am 22.8 27.1 21.1 90 1.1 CALM 0 0 0 0 1010.5 1009.8 0.0
25/03:00am 23.1 27.7 21.7 92 0.9 CALM 0 0 0 0 1010.7 1010.0 0.0
25/02:30am 23.3 28.0 21.9 92 0.9 CALM 0 0 0 0 1010.8 1010.1 0.0
25/02:00am 23.6 27.9 22.0 91 1.1 WSW 2 6 1 3 1011.0 1010.3 0.0
25/01:30am 23.8 28.4 22.4 92 0.9 WSW 2 4 1 2 1011.5 1010.9 0.0
25/01:00am 23.3 27.7 21.4 89 1.3 CALM 0 0 0 0 1011.8 1011.2 0.0
25/12:30am 23.3 27.2 21.2 88 1.4 WSW 2 6 1 3 1012.2 1011.6 0.0
25/12:00am 23.7 27.9 21.0 85 1.8 CALM 0 4 0 2 1012.5 1011.9 0.0
 
Date/Time
CST
Temp
°C
App
Temp
°C
Dew
Point
°C
Rel
Hum
%
Delta-T
°C
Wind Press
QNH
hPa
Press
MSL
hPa
Rain since
9am
mm
Dir  Spd
km/h
Gust
km/h
Spd
kts
Gust
kts
24/11:30pm 24.0 28.4 21.3 85 1.8 CALM 0 0 0 0 1012.6 1012.0 0.0
24/11:00pm 24.4 28.6 20.9 81 2.3 CALM 0 0 0 0 1012.9 1012.2 0.0
24/10:30pm 24.6 28.7 20.7 79 2.6 CALM 0 0 0 0 1013.1 1012.4 0.0
24/10:00pm 26.0 29.3 19.9 69 4.0 NNW 2 6 1 3 1013.0 1012.3 0.0
24/09:30pm 27.3 29.7 19.6 62 5.0 N 6 9 3 5 1012.9 1012.2 0.0
24/09:00pm 27.0 29.6 20.1 66 4.5 NE 6 7 3 4 1012.6 1012.0 0.0
24/08:30pm 25.7 29.2 19.6 69 4.0 CALM 0 4 0 2 1012.0 1011.4 0.0
24/08:00pm 26.8 30.3 21.1 71 3.8 ENE 4 4 2 2 1011.4 1010.8 0.0
24/07:30pm 26.6 31.2 21.8 75 3.2 CALM 0 0 0 0 1010.8 1010.1 0.0
24/07:00pm 27.6 32.1 21.6 70 4.0 CALM 0 0 0 0 1010.4 1009.7 0.0
24/06:30pm 29.2 32.5 19.2 54 6.5 CALM 0 0 0 0 1010.1 1009.4 0.0
24/06:00pm 31.0 33.5 19.0 48 7.8 ESE 4 6 2 3 1009.6 1008.9 0.0
24/05:30pm 32.4 33.8 17.8 41 9.4 ESE 7 9 4 5 1009.3 1008.6 0.0
24/05:00pm 33.3 34.4 17.9 40 10.0 ESE 9 15 5 8 1009.2 1008.5 0.0
24/04:30pm 33.0 33.4 17.2 39 10.1 ESE 11 19 6 10 1009.1 1008.4 0.0
24/04:00pm 33.5 33.3 16.8 36 10.7 ESE 13 19 7 10 1009.2 1008.5 0.0
24/03:30pm 33.2 32.4 16.1 35 10.8 ESE 15 20 8 11 1009.3 1008.6 0.0
24/03:00pm 33.4 31.9 16.3 36 10.8 ESE 19 24 10 13 1009.6 1008.9 0.0
24/02:30pm 33.2 32.4 16.1 35 10.8 ESE 15 26 8 14 1009.7 1009.0 0.0
24/02:00pm 33.0 33.3 18.0 41 9.7 ESE 13 22 7 12 1010.0 1009.3 0.0
24/01:30pm 32.7 32.3 18.1 42 9.5 ESE 17 24 9 13 1010.4 1009.7 0.0
24/01:00pm 32.8 33.0 19.3 45 8.9 ESE 17 26 9 14 1010.9 1010.2 0.0
24/12:30pm 32.1 33.8 19.4 47 8.4 E 9 15 5 8 1011.5 1010.9 0.0
24/12:00pm 31.4 31.4 18.0 44 8.6 E 15 22 8 12 1012.2 1011.6 0.0
24/11:30am 31.1 32.6 19.8 51 7.5 ENE 11 17 6 9 1012.9 1012.2 0.0
24/11:00am 30.5 31.2 18.9 50 7.6 E 13 22 7 12 1013.4 1012.7 0.0
24/10:30am 29.5 31.9 20.9 60 5.7 E 9 13 5 7 1013.5 1012.8 0.0
24/10:00am 28.4 30.8 20.9 64 5.0 SE 9 13 5 7 1013.3 1012.6 0.0
24/09:30am 27.7 30.2 21.0 67 4.5 ESE 9 13 5 7 1013.4 1012.7 0.0
24/09:00am 26.8 29.0 21.1 71 3.8 ESE 11 15 6 8 1013.2 1012.5 0.0
24/08:30am 26.1 29.0 21.1 74 3.3 ESE 7 11 4 6 1013.1 1012.4 0.0
24/08:00am 24.8 28.8 21.3 81 2.3 S 2 6 1 3 1012.5 1011.9 0.0
24/07:30am 22.9 27.7 22.2 96 0.5 CALM 0 0 0 0 1012.1 1011.5 0.0
24/07:00am 22.4 27.0 21.7 96 0.5 CALM 0 0 0 0 1011.6 1011.0 0.0
24/06:30am 22.3 26.4 21.6 96 0.5 S 2 2 1 1 1011.0 1010.3 0.0
24/06:00am 22.0 25.2 20.6 92 0.9 SSW 4 4 2 2 1010.8 1010.1 0.0
24/05:30am 22.5 26.1 21.3 93 0.8 SSW 4 4 2 2 1010.6 1009.9 0.0
24/05:00am 23.0 27.2 22.5 97 0.3 SSW 4 6 2 3 1010.6 1009.9 0.0
24/04:30am 22.9 27.7 22.2 96 0.5 CALM 0 0 0 0 1010.6 1009.9 0.0
24/04:00am 22.2 26.3 20.7 91 1.0 CALM 0 0 0 0 1010.8 1010.1 0.0
24/03:30am 22.9 27.7 22.1 95 0.5 CALM 0 0 0 0 1010.8 1010.1 0.0
24/03:00am 22.8 27.3 21.6 93 0.8 CALM 0 0 0 0 1011.0 1010.3 0.0
24/02:30am 22.9 27.4 21.5 92 0.9 CALM 0 0 0 0 1011.1 1010.4 0.0
24/02:00am 23.4 28.1 22.0 92 0.9 CALM 0 0 0 0 1011.6 1011.0 0.0
24/01:30am 23.6 28.3 21.9 90 1.1 CALM 0 0 0 0 1011.9 1011.3 0.0
24/01:00am 23.8 28.6 22.1 90 1.1 CALM 0 0 0 0 1012.2 1011.6 0.0
24/12:30am 24.0 28.9 22.3 90 1.1 CALM 0 0 0 0 1012.5 1011.9 0.0
24/12:00am 24.4 29.3 22.3 88 1.4 CALM 0 0 0 0 1012.6 1012.0 0.0
 
Date/Time
CST
Temp
°C
App
Temp
°C
Dew
Point
°C
Rel
Hum
%
Delta-T
°C
Wind Press
QNH
hPa
Press
MSL
hPa
Rain since
9am
mm
Dir  Spd
km/h
Gust
km/h
Spd
kts
Gust
kts
23/11:30pm 24.9 30.1 22.8 88 1.4 CALM 0 0 0 0 1012.9 1012.2 0.0
23/11:00pm 25.4 29.9 22.3 83 2.1 W 2 4 1 2 1013.0 1012.3 0.0
23/10:30pm 25.8 30.0 22.5 82 2.2 W 4 4 2 2 1012.9 1012.2 0.0
23/10:00pm 25.9 29.5 22.4 81 2.4 WNW 7 11 4 6 1013.0 1012.3 0.0
23/09:30pm 25.2 29.7 21.5 80 2.5 CALM 0 0 0 0 1013.0 1012.3 0.0

Latest Capital City Observations: Canberra | Sydney | Melbourne | Brisbane | Adelaide | Perth | Hobart | Darwin

Other Formats:

Comma delimited format used in spreadsheet applications
http://www.bom.gov.au/fwo/IDD60901/IDD60901.94125.axf

JavaScript Object Notation format (JSON) in row-major order
http://www.bom.gov.au/fwo/IDD60901/IDD60901.94125.json